Seattle, WA

4:09 AM PDT on September 23, 2014 (GMT -0700)
Boeing Field-King County International | Change Station
CLOSE
Current Station
Airport
Location: Seattle Boeing,
Elevation: 16 ft
Nearby Weather Stations

Elev 16 ft 47.53 °N, 122.30 °W | Updated 16 minutes ago

Overcast
Overcast
63 °F
Feels Like 63 °F
N
4
Wind Variable Wind from West

Today
High -- | Low -- °F
--% Chance of Precip.
Yesterday
High -- | Low -- °F
Precip. -- in
6:57 AM 7:04 PM
Waning Crescent, 1% visible
Pressure 29.87 in
Visibility 10.0 miles
Clouds Mostly Cloudy 11000 ft
Dew Point 58 °F
Humidity 84%
Rainfall 0.00 in
Snow Depth 0 in , 0 in , 0 in
UV 0 out of 12
Pollen 1.40 out of 12
Air Quality Not available.
Flu Activity Not available.
METAR KBFI 231053Z 27003KT 10SM -RA BKN110 17/14 A2987 RMK AO2 RAE03B20 SLP115 P0000 T01720144

More Conditions Fewer Conditions

Pressure 29.87 in
Visibility 10.0 miles
Clouds Mostly Cloudy 11000 ft
Dew Point 58 °F
Humidity 84%
Rainfall 0.00 in
Snow Depth 0 in , 0 in , 0 in
UV 0 out of 12
Pollen 1.40 out of 12
Air Quality Not available.
Flu Activity Not available.
METAR KBFI 231053Z 27003KT 10SM -RA BKN110 17/14 A2987 RMK AO2 RAE03B20 SLP115 P0000 T01720144

More Conditions Fewer Conditions

10-Day Weather Forecast

Almanac

Astronomy

Sep. 23, 2014 Rise Set
Actual Time 6:57 AM PDT 7:04 PM PDT
Civil Twilight 6:26 AM PDT 7:35 PM PDT
Nautical Twilight 5:50 AM PDT 8:11 PM PDT
Astronomical Twilight 5:13 AM PDT 8:48 PM PDT
Moon 6:26 AM PDT 6:44 PM PDT
Length of Visible Light 13h 08m
Length of Day
12h 07m
Tomorrow will be 3m 24s shorter.
Waning Crescent, 1% of the Moon is Illuminated
Today
Waning Crescent
Sep 24
New
Oct 1
First Quarter
Oct 8
Full
Oct 15
Last Quarter

Today's Extremes

State Highs State Lows

Community

WunderPhotos

Upload Photos

1,755,645 photos uploaded!

Nearby

Air Quality

  Air Quality AQ Index Pollutant
Tuesday Good
PM2.5
Wednesday Good
PM2.5
Thursday Good
PM2.5
Friday Good
PM2.5
Saturday Good
PM2.5

Snow Depth

Station Depth Elevation
Sentinel Butte 0 in 4920 ft
Elbow Lake 0 in 3200 ft
Spirit Lake 0 in 3120 ft
Sasse Ridge 0 in 4200 ft
Morse Lake 0 in 5400 ft

Earthquake Activity

City Distance Mag. Time & Date
No recent earthquake activity has been reported nearby.
Minimum magnitude displayed is 2.5.

Coastal Water Temperatures

Place Temperature
Port Townsend, WA 52.0 °F
Seattle, WA 55.9 °F
Friday Harbor, WA 52.0 °F
Tacoma, WA 55.9 °F

Nearby Weather Stations